createdAt,value
2022-12-17T00:01:02.724Z,98293.34
2022-12-17T00:02:19.511Z,98289.03
2022-12-17T00:03:40.745Z,98301.09
2022-12-17T00:05:01.481Z,98288.22
2022-12-17T00:06:22.653Z,98291.69
2022-12-17T00:07:42.797Z,98293.34
2022-12-17T00:09:11.804Z,98294.19
2022-12-17T00:10:32.060Z,98292.53
2022-12-17T00:11:52.734Z,98293.34
2022-12-17T00:13:16.554Z,98297.69
2022-12-17T00:14:36.820Z,98297.69
2022-12-17T00:15:58.361Z,98306.22
2022-12-17T00:17:18.622Z,98301.09
2022-12-17T00:18:39.185Z,98307.97
2022-12-17T00:19:59.330Z,98313.97
2022-12-17T00:21:19.941Z,98314.78
2022-12-17T00:22:40.810Z,98321.69
2022-12-17T00:24:01.470Z,98313.97
2022-12-17T00:25:21.590Z,98324.25
2022-12-17T00:26:41.649Z,98322.59
2022-12-17T00:28:01.850Z,98328.59
2022-12-17T00:29:21.943Z,98332.00
2022-12-17T00:30:43.707Z,98330.34
2022-12-17T00:32:05.175Z,98332.91
2022-12-17T00:33:25.478Z,98339.78
2022-12-17T00:34:45.589Z,98328.66
2022-12-17T00:36:10.078Z,98335.56
2022-12-17T00:37:30.262Z,98337.28
2022-12-17T00:38:50.771Z,98339.03
2022-12-17T00:40:16.397Z,98339.03
2022-12-17T00:41:36.661Z,98344.19
2022-12-17T00:42:56.978Z,98344.28
2022-12-17T00:44:17.188Z,98349.44
2022-12-17T00:45:37.758Z,98342.53
2022-12-17T00:46:58.433Z,98338.31
2022-12-17T00:48:20.318Z,98343.47
2022-12-17T00:49:40.809Z,98341.72
2022-12-17T00:51:00.879Z,98341.78
2022-12-17T00:52:20.925Z,98342.63
2022-12-17T00:53:41.615Z,98345.22
2022-12-17T00:55:02.803Z,98353.00
2022-12-17T00:56:24.059Z,98354.66
2022-12-17T00:57:44.227Z,98353.00
2022-12-17T00:59:04.327Z,98358.97
2022-12-17T01:00:43.499Z,98365.88
2022-12-17T01:02:03.887Z,98358.97
2022-12-17T01:03:28.709Z,98352.16
2022-12-17T01:04:49.120Z,98354.75
2022-12-17T01:06:09.798Z,98359.81
2022-12-17T01:07:30.250Z,98360.72
2022-12-17T01:08:50.592Z,98364.13
2022-12-17T01:10:11.539Z,98358.97
2022-12-17T01:11:31.740Z,98358.97
2022-12-17T01:12:52.454Z,98357.22
2022-12-17T01:14:13.659Z,98353.81
2022-12-17T01:15:35.083Z,98359.81
2022-12-17T01:16:56.244Z,98362.31
2022-12-17T01:18:25.061Z,98352.09
2022-12-17T01:19:47.446Z,98356.41
2022-12-17T01:21:07.765Z,98356.41
2022-12-17T01:22:34.845Z,98357.31
2022-12-17T01:23:54.955Z,98363.31
2022-12-17T01:25:17.120Z,98360.72
2022-12-17T01:26:37.248Z,98358.16
2022-12-17T01:27:57.367Z,98363.25
2022-12-17T01:29:17.434Z,98373.53
2022-12-17T01:30:37.710Z,98370.97
2022-12-17T01:31:58.200Z,98373.53
2022-12-17T01:33:21.937Z,98374.38
2022-12-17T01:34:42.193Z,98375.19
2022-12-17T01:36:03.632Z,98372.63
2022-12-17T01:37:24.903Z,98376.94
2022-12-17T01:38:46.261Z,98377.78
2022-12-17T01:40:06.462Z,98381.16
2022-12-17T01:41:27.759Z,98383.75
2022-12-17T01:42:56.154Z,98387.16
2022-12-17T01:44:16.596Z,98395.78
2022-12-17T01:45:36.034Z,98393.22
2022-12-17T01:47:00.538Z,98396.72
2022-12-17T01:48:23.620Z,98390.66
2022-12-17T01:49:44.333Z,98385.50
2022-12-17T01:51:09.581Z,98387.25
2022-12-17T01:52:30.241Z,98389.88
2022-12-17T01:53:53.629Z,98390.72
2022-12-17T01:55:13.868Z,98389.88
2022-12-17T01:56:35.563Z,98385.56
2022-12-17T01:57:57.241Z,98390.72
2022-12-17T01:59:17.520Z,98385.56
2022-12-17T02:00:38.254Z,98383.84
2022-12-17T02:01:59.172Z,98390.66
2022-12-17T02:03:19.768Z,98393.22
2022-12-17T02:04:41.746Z,98381.25
2022-12-17T02:06:07.211Z,98388.13
2022-12-17T02:07:39.377Z,98376.13
2022-12-17T02:09:05.975Z,98377.81
2022-12-17T02:10:36.765Z,98371.78
2022-12-17T02:12:03.615Z,98377.81
2022-12-17T02:13:29.613Z,98371.03
2022-12-17T02:14:53.413Z,98374.53
2022-12-17T02:16:17.771Z,98369.28
2022-12-17T02:17:41.419Z,98371.84
2022-12-17T02:19:08.504Z,98369.28
2022-12-17T02:20:39.729Z,98375.34
2022-12-17T02:22:05.170Z,98359.06
2022-12-17T02:23:33.274Z,98355.66
2022-12-17T02:24:57.338Z,98349.69
2022-12-17T02:26:20.234Z,98348.78
2022-12-17T02:27:43.599Z,98341.88
2022-12-17T02:29:07.694Z,98337.56
2022-12-17T02:30:29.295Z,98340.22
2022-12-17T02:31:50.695Z,98340.22
2022-12-17T02:33:12.397Z,98341.88
2022-12-17T02:34:34.379Z,98341.03
2022-12-17T02:35:58.117Z,98340.94
2022-12-17T02:37:18.367Z,98333.22
2022-12-17T02:38:41.581Z,98328.16
2022-12-17T02:40:02.361Z,98322.94
2022-12-17T02:41:25.215Z,98322.09
2022-12-17T02:42:48.365Z,98321.28
2022-12-17T02:44:09.238Z,98316.22
2022-12-17T02:45:35.267Z,98322.19
2022-12-17T02:46:57.052Z,98317.88
2022-12-17T02:48:18.933Z,98319.63
2022-12-17T02:49:38.566Z,98326.50
2022-12-17T02:50:59.309Z,98319.63
2022-12-17T02:52:34.780Z,98329.00
2022-12-17T02:54:01.099Z,98332.50
2022-12-17T02:55:23.971Z,98350.53
2022-12-17T02:56:44.741Z,98363.41
2022-12-17T02:58:06.315Z,98375.44
2022-12-17T02:59:28.187Z,98391.72
2022-12-17T03:00:49.339Z,98403.78
2022-12-17T03:02:09.842Z,98415.81
2022-12-17T03:03:30.281Z,98412.41
2022-12-17T03:04:50.392Z,98416.63
2022-12-17T03:06:25.378Z,98421.78
2022-12-17T03:07:45.276Z,98426.19
2022-12-17T03:09:05.479Z,98427.84
2022-12-17T03:10:41.316Z,98435.59
2022-12-17T03:12:01.560Z,98446.78
2022-12-17T03:13:22.968Z,98455.34
2022-12-17T03:14:54.882Z,98468.25
2022-12-17T05:38:59.944Z,98541.38
2022-12-17T05:40:20.185Z,98538.72
2022-12-17T05:41:40.389Z,98530.88
2022-12-17T05:43:00.709Z,98528.06
2022-12-17T05:44:20.847Z,98529.66
2022-12-17T05:45:41.127Z,98538.13
2022-12-17T05:47:01.350Z,98538.88
2022-12-17T05:48:22.329Z,98545.69
2022-12-17T05:49:42.670Z,98542.13
2022-12-17T05:51:22.026Z,98539.47
2022-12-17T05:52:53.649Z,98550.59
2022-12-17T05:54:15.140Z,98543.81
2022-12-17T05:55:35.876Z,98553.09
2022-12-17T05:56:56.216Z,98550.50
2022-12-17T05:58:22.060Z,98557.34
2022-12-17T05:59:42.265Z,98569.31
2022-12-17T06:01:02.895Z,98577.84
2022-12-17T06:02:24.394Z,98571.78
2022-12-17T06:03:44.787Z,98576.13
2022-12-17T06:05:05.142Z,98570.00
2022-12-17T06:06:25.482Z,98564.84
2022-12-17T06:07:45.645Z,98562.19
2022-12-17T06:09:06.102Z,98566.41
2022-12-17T06:10:28.676Z,98566.41
2022-12-17T06:11:48.844Z,98566.41
2022-12-17T06:13:14.162Z,98563.75
2022-12-17T06:14:34.414Z,98559.38
2022-12-17T06:15:56.965Z,98563.69
2022-12-17T06:17:16.719Z,98564.44
2022-12-17T06:18:36.985Z,98559.28
2022-12-17T06:19:57.310Z,98565.19
2022-12-17T06:21:17.596Z,98567.75
2022-12-17T06:22:37.792Z,98584.94
2022-12-17T06:23:58.079Z,98589.22
2022-12-17T06:25:18.232Z,98594.38
2022-12-17T06:26:39.522Z,98604.66
2022-12-17T06:27:59.678Z,98599.56
2022-12-17T06:29:20.029Z,98602.97
2022-12-17T06:30:40.757Z,98614.28
2022-12-17T06:32:01.102Z,98621.06
2022-12-17T06:33:22.955Z,98625.31
2022-12-17T06:34:43.193Z,98627.97
2022-12-17T06:36:03.351Z,98622.81
2022-12-17T06:37:23.510Z,98618.41
2022-12-17T06:38:43.767Z,98615.00
2022-12-17T06:40:03.962Z,98613.34
2022-12-17T06:41:24.278Z,98623.66
2022-12-17T06:42:45.757Z,98633.88
2022-12-17T06:44:06.534Z,98638.19
2022-12-17T06:45:30.542Z,98651.97
2022-12-17T06:46:51.154Z,98661.44
2022-12-17T06:48:11.336Z,98665.75
2022-12-17T06:49:33.843Z,98671.00
2022-12-17T06:50:56.642Z,98668.41
2022-12-17T06:52:17.013Z,98664.16
2022-12-17T06:53:37.578Z,98671.03
2022-12-17T06:54:58.260Z,98662.41
2022-12-17T06:56:18.853Z,98667.56
2022-12-17T06:57:41.790Z,98653.84
2022-12-17T06:59:06.039Z,98650.44
2022-12-17T07:00:28.020Z,98655.59
2022-12-17T07:01:48.741Z,98662.41
2022-12-17T07:03:14.914Z,98663.25
2022-12-17T07:04:35.604Z,98662.41
2022-12-17T07:05:55.972Z,98673.56
2022-12-17T07:07:16.558Z,98679.53
2022-12-17T07:08:41.293Z,98676.97
2022-12-17T07:10:01.441Z,98678.63
2022-12-17T07:11:21.833Z,98681.19
2022-12-17T07:12:42.173Z,98683.69
2022-12-17T07:14:02.336Z,98684.59
2022-12-17T07:15:24.862Z,98695.66
2022-12-17T07:16:45.093Z,98680.28
2022-12-17T07:18:13.551Z,98693.16
2022-12-17T07:19:34.097Z,98689.66
2022-12-17T07:20:54.341Z,98698.22
2022-12-17T07:22:14.591Z,98702.53
2022-12-17T07:23:35.054Z,98706.78
2022-12-17T07:25:03.898Z,98711.94
2022-12-17T07:26:24.044Z,98722.22
2022-12-17T07:27:44.666Z,98721.41
2022-12-17T07:29:05.439Z,98720.56
2022-12-17T07:30:27.819Z,98717.06
2022-12-17T07:31:48.149Z,98729.19
2022-12-17T07:33:16.483Z,98733.38
2022-12-17T07:34:36.622Z,98734.25
2022-12-17T07:35:56.783Z,98730.03
2022-12-17T07:37:20.498Z,98735.09
2022-12-17T07:38:41.360Z,98729.13
2022-12-17T07:40:01.846Z,98730.81
2022-12-17T07:41:22.423Z,98734.22
2022-12-17T07:42:42.545Z,98723.91
2022-12-17T07:44:03.293Z,98729.94
2022-12-17T07:45:24.909Z,98735.97
2022-12-17T07:46:46.670Z,98736.00
2022-12-17T07:48:10.448Z,98736.09
2022-12-17T07:49:30.985Z,98748.13
2022-12-17T07:50:51.183Z,98750.72
2022-12-17T07:52:12.401Z,98752.44
2022-12-17T07:53:32.740Z,98754.19
2022-12-17T07:54:53.666Z,98760.19
2022-12-17T07:56:13.838Z,98753.28
2022-12-17T07:57:34.199Z,98753.28
2022-12-17T07:58:54.308Z,98748.13
2022-12-17T08:00:26.473Z,98748.13
2022-12-17T08:01:48.218Z,98753.28
2022-12-17T08:03:08.916Z,98752.44
2022-12-17T08:04:25.802Z,98762.75
2022-12-17T08:05:46.460Z,98752.44
2022-12-17T08:07:11.114Z,98757.59
2022-12-17T08:08:33.520Z,98757.59
2022-12-17T08:09:53.910Z,98766.25
2022-12-17T08:11:14.220Z,98761.09
2022-12-17T08:12:34.396Z,98774.84
2022-12-17T08:13:54.621Z,98774.84
2022-12-17T08:15:14.784Z,98780.91
2022-12-17T08:16:35.363Z,98795.44
2022-12-17T08:17:59.179Z,98795.53
2022-12-17T08:19:19.877Z,98799.91
2022-12-17T08:20:40.296Z,98798.22
2022-12-17T08:22:00.859Z,98814.53
2022-12-17T08:23:21.558Z,98812.78
2022-12-17T08:24:41.904Z,98811.03
2022-12-17T08:26:02.152Z,98811.03
2022-12-17T08:27:22.777Z,98812.78
2022-12-17T08:28:50.396Z,98803.31
2022-12-17T08:30:11.303Z,98805.91
2022-12-17T08:31:31.529Z,98802.50
2022-12-17T08:32:51.914Z,98804.97
2022-12-17T08:34:13.382Z,98813.53
2022-12-17T08:35:34.032Z,98803.25
2022-12-17T08:37:06.033Z,98813.53
2022-12-17T08:38:26.280Z,98818.69
2022-12-17T08:39:46.589Z,98823.84
2022-12-17T08:41:07.320Z,98825.50
2022-12-17T08:42:27.564Z,98821.25
2022-12-17T08:43:49.689Z,98816.03
2022-12-17T08:45:10.150Z,98815.19
2022-12-17T08:46:30.739Z,98824.66
2022-12-17T08:47:51.179Z,98820.34
2022-12-17T08:49:11.333Z,98816.88
2022-12-17T08:50:32.729Z,98819.44
2022-12-17T08:51:53.220Z,98826.28
2022-12-17T08:53:16.809Z,98823.72
2022-12-17T08:54:37.440Z,98824.53
2022-12-17T08:55:58.025Z,98823.72
2022-12-17T08:57:30.682Z,98828.03
2022-12-17T08:58:55.724Z,98830.66
2022-12-17T09:00:19.569Z,98825.59
2022-12-17T09:01:39.952Z,98828.16
2022-12-17T09:03:00.569Z,98822.94
2022-12-17T09:04:21.337Z,98820.34
2022-12-17T09:05:43.036Z,98811.72
2022-12-17T09:07:03.253Z,98820.31
2022-12-17T09:08:25.469Z,98820.22
2022-12-17T09:09:45.915Z,98827.94
2022-12-17T09:11:06.374Z,98831.34
2022-12-17T09:12:23.312Z,98833.84
2022-12-17T09:13:43.901Z,98841.50
2022-12-17T09:15:04.185Z,98841.50
2022-12-17T09:16:24.970Z,98846.66
2022-12-17T09:17:45.188Z,98844.00
2022-12-17T09:19:05.678Z,98836.28
2022-12-17T09:20:29.481Z,98840.53
2022-12-17T09:21:51.317Z,98837.03
2022-12-17T09:23:11.512Z,98822.41
2022-12-17T09:24:32.337Z,98816.44
2022-12-17T09:25:56.548Z,98812.06
2022-12-17T09:27:14.903Z,98806.91
2022-12-17T09:28:35.008Z,98807.66
2022-12-17T09:29:55.378Z,98807.66
2022-12-17T09:31:17.679Z,98814.47
2022-12-17T09:32:38.242Z,98819.63
2022-12-17T09:33:58.463Z,98818.72
2022-12-17T09:35:18.795Z,98828.13
2022-12-17T09:36:38.272Z,98833.28
2022-12-17T09:37:59.838Z,98834.13
2022-12-17T09:39:20.249Z,98836.69
2022-12-17T09:40:42.222Z,98829.78
2022-12-17T09:42:07.077Z,98836.59
2022-12-17T09:43:38.783Z,98833.13
2022-12-17T09:45:03.331Z,98826.31
2022-12-17T09:46:26.675Z,98822.81
2022-12-17T09:47:53.966Z,98814.19
2022-12-17T09:49:19.806Z,98816.84
2022-12-17T09:50:40.896Z,98819.34
2022-12-17T09:52:01.532Z,98819.34
2022-12-17T09:53:28.646Z,98818.50
2022-12-17T09:54:57.657Z,98818.50
2022-12-17T09:56:21.928Z,98832.28
2022-12-17T09:57:49.729Z,98827.97
2022-12-17T09:59:21.288Z,98830.53
2022-12-17T10:00:44.104Z,98838.28
2022-12-17T10:02:04.551Z,98845.09
2022-12-17T10:03:29.850Z,98841.63
2022-12-17T10:04:52.968Z,98844.22
2022-12-17T10:06:17.936Z,98856.16
2022-12-17T10:07:44.416Z,98857.00
2022-12-17T10:09:07.004Z,98862.16
2022-12-17T10:10:35.139Z,98858.66
2022-12-17T10:11:55.461Z,98862.97
2022-12-17T10:13:15.789Z,98856.09
2022-12-17T10:14:38.706Z,98859.50
2022-12-17T10:16:00.410Z,98859.41
2022-12-17T10:17:21.131Z,98868.88
2022-12-17T10:18:41.328Z,98870.56
2022-12-17T10:20:02.011Z,98875.78
2022-12-17T10:21:26.802Z,98879.19
2022-12-17T10:22:47.028Z,98880.94
2022-12-17T10:24:08.440Z,98877.53
2022-12-17T10:25:33.437Z,98874.94
2022-12-17T10:26:54.744Z,98863.91
2022-12-17T10:28:19.973Z,98865.56
2022-12-17T10:29:47.403Z,98870.78
2022-12-17T10:31:08.299Z,98868.22
2022-12-17T10:32:31.032Z,98864.72
2022-12-17T10:33:56.031Z,98873.19
2022-12-17T10:35:16.729Z,98872.38
2022-12-17T10:36:41.403Z,98872.28
2022-12-17T10:38:01.781Z,98868.00
2022-12-17T10:39:23.870Z,98866.25
2022-12-17T10:40:46.543Z,98867.09
2022-12-17T10:42:06.841Z,98866.19
2022-12-17T10:43:41.367Z,98872.16
2022-12-17T10:45:01.860Z,98865.34
2022-12-17T10:46:22.148Z,98869.59
2022-12-17T10:47:44.275Z,98869.50
2022-12-17T10:49:09.749Z,98871.25
2022-12-17T10:50:33.846Z,98868.66
2022-12-17T10:51:55.667Z,98876.34
2022-12-17T10:53:16.361Z,98872.91
2022-12-17T10:54:48.529Z,98880.59
2022-12-17T10:56:11.778Z,98877.22
2022-12-17T10:57:42.136Z,98880.72
2022-12-17T10:59:03.590Z,98875.56
2022-12-17T11:00:38.379Z,98880.72
2022-12-17T11:02:00.922Z,98882.47
2022-12-17T11:03:22.211Z,98886.78
2022-12-17T11:04:52.851Z,98882.53
2022-12-17T11:06:13.004Z,98892.84
2022-12-17T11:07:36.499Z,98890.31
2022-12-17T11:08:56.396Z,98896.38
2022-12-17T11:10:20.041Z,98899.78
2022-12-17T11:11:41.180Z,98899.03
2022-12-17T11:13:03.984Z,98905.94
2022-12-17T11:14:24.565Z,98909.34
2022-12-17T11:15:49.627Z,98913.59
2022-12-17T11:17:12.448Z,98912.75
2022-12-17T11:18:36.961Z,98908.50
2022-12-17T11:20:02.305Z,98902.44
2022-12-17T11:21:24.963Z,98912.75
2022-12-17T11:22:48.746Z,98911.91
2022-12-17T11:24:09.613Z,98917.06
2022-12-17T11:25:41.682Z,98919.63
2022-12-17T11:27:04.073Z,98926.53
2022-12-17T11:28:32.027Z,98928.28
2022-12-17T11:29:52.770Z,98924.88
2022-12-17T11:31:18.869Z,98923.19
2022-12-17T11:33:02.683Z,98916.38
2022-12-17T11:34:30.951Z,98922.44
2022-12-17T11:35:56.971Z,98927.56
2022-12-17T11:37:21.589Z,98930.97
2022-12-17T11:38:49.126Z,98927.56
2022-12-17T11:40:17.220Z,98922.44
2022-12-17T11:41:46.579Z,98921.59
2022-12-17T11:43:13.812Z,98921.59
2022-12-17T11:44:43.152Z,98918.09
2022-12-17T11:46:12.283Z,98922.44
2022-12-17T11:47:40.630Z,98924.16
2022-12-17T11:49:05.397Z,98932.72
2022-12-17T11:50:34.692Z,98933.56
2022-12-17T11:52:00.006Z,98936.13
2022-12-17T11:53:28.206Z,98935.22
2022-12-17T11:54:54.308Z,98942.94
2022-12-17T11:56:25.042Z,98955.91
2022-12-17T11:57:53.566Z,98955.91
2022-12-17T11:59:18.930Z,98961.13
2022-12-17T12:00:55.204Z,98953.41
2022-12-17T12:02:21.135Z,98950.97
2022-12-17T12:03:51.185Z,98953.53
2022-12-17T12:05:30.540Z,98953.53
2022-12-17T12:07:02.340Z,98955.28
2022-12-17T12:08:28.101Z,98957.03
2022-12-17T12:09:57.703Z,98959.66
2022-12-17T12:11:29.744Z,98958.84
2022-12-17T12:13:03.805Z,98963.16
2022-12-17T12:14:33.442Z,98959.78
2022-12-17T12:15:59.395Z,98964.94
2022-12-17T12:17:34.486Z,98971.09
2022-12-17T12:19:00.893Z,98971.97
2022-12-17T12:20:24.956Z,98978.03
2022-12-17T12:21:57.515Z,98983.16
2022-12-17T12:23:40.789Z,98986.66
2022-12-17T12:25:19.273Z,98983.25
2022-12-17T12:26:50.416Z,98985.91
2022-12-17T12:28:17.557Z,98985.00
2022-12-17T12:29:44.554Z,98984.91
2022-12-17T12:31:10.398Z,98992.56
2022-12-17T12:32:35.631Z,98992.50
2022-12-17T12:34:03.021Z,98996.00
2022-12-17T12:35:23.915Z,98993.44
2022-12-17T12:36:46.126Z,99002.81
2022-12-17T12:38:06.375Z,98995.09
2022-12-17T12:39:29.598Z,99003.66
2022-12-17T12:40:54.710Z,99004.56
2022-12-17T12:42:17.384Z,99003.66
2022-12-17T12:43:40.983Z,99003.66
2022-12-17T12:45:06.720Z,99007.13
2022-12-17T12:46:34.387Z,99008.88
2022-12-17T12:48:04.421Z,99008.88
2022-12-17T12:49:43.820Z,99006.34
2022-12-17T12:51:09.171Z,99006.41
2022-12-17T12:52:30.693Z,99013.22
2022-12-17T12:53:51.066Z,99011.56
2022-12-17T12:55:12.781Z,99012.31
2022-12-17T12:56:44.778Z,99007.25
2022-12-17T12:58:14.948Z,99011.50
2022-12-17T12:59:44.013Z,99014.06
2022-12-17T13:01:11.864Z,99018.38
2022-12-17T13:02:50.620Z,99020.03
2022-12-17T13:04:12.243Z,99017.63
2022-12-17T13:05:35.381Z,99016.72
2022-12-17T13:06:43.925Z,99023.59
2022-12-17T13:07:45.652Z,99026.91
2022-12-17T13:08:51.438Z,99024.25
2022-12-17T13:09:55.062Z,99031.97
2022-12-17T13:10:57.844Z,99035.38
2022-12-17T13:12:17.893Z,99034.47
2022-12-17T13:13:30.977Z,99037.94
2022-12-17T13:14:37.019Z,99044.84
2022-12-17T13:15:42.734Z,99036.28
2022-12-17T13:16:52.276Z,99039.78
2022-12-17T13:18:01.482Z,99038.03
2022-12-17T13:19:05.424Z,99043.19
2022-12-17T13:20:27.403Z,99038.03
2022-12-17T13:21:31.672Z,99040.59
2022-12-17T13:22:34.829Z,99042.28
2022-12-17T13:23:39.287Z,99043.09
2022-12-17T13:24:42.666Z,99050.81
2022-12-17T13:25:45.758Z,99051.59
2022-12-17T13:26:47.949Z,99049.84
2022-12-17T13:27:51.610Z,99063.56
2022-12-17T13:29:02.286Z,99057.56
2022-12-17T13:30:21.652Z,99066.16
2022-12-17T13:31:26.763Z,99065.28
2022-12-17T13:32:33.207Z,99062.72
2022-12-17T13:33:41.473Z,99064.41
2022-12-17T13:34:53.099Z,99061.84
2022-12-17T13:36:03.879Z,99068.66
2022-12-17T13:37:10.122Z,99067.75
2022-12-17T13:38:18.009Z,99067.75
2022-12-17T13:39:54.153Z,99075.41
2022-12-17T13:41:29.568Z,99077.28
2022-12-17T13:43:10.488Z,99077.28
2022-12-17T13:44:22.741Z,99077.34
2022-12-17T13:45:29.176Z,99075.59
2022-12-17T13:46:46.928Z,99076.38
2022-12-17T13:48:01.578Z,99078.13
2022-12-17T13:49:54.585Z,99077.22
2022-12-17T13:51:32.540Z,99086.75
2022-12-17T13:52:57.404Z,99087.72
2022-12-17T13:54:05.406Z,99084.19
2022-12-17T13:55:18.683Z,99090.16
2022-12-17T13:56:30.209Z,99096.06
2022-12-17T13:57:54.252Z,99096.16
2022-12-17T13:59:03.150Z,99098.72
2022-12-17T14:00:19.898Z,99099.47
2022-12-17T14:01:26.128Z,99096.91
2022-12-17T14:02:30.200Z,99098.56
2022-12-17T14:03:56.972Z,99104.56
2022-12-17T14:04:57.342Z,99108.03
2022-12-17T14:05:59.857Z,99108.88
2022-12-17T14:07:05.605Z,99105.41
2022-12-17T14:08:07.711Z,99113.97
2022-12-17T14:09:15.527Z,99107.91
2022-12-17T14:10:19.120Z,99111.41
2022-12-17T14:11:39.592Z,99105.34
2022-12-17T14:12:45.873Z,99123.38
2022-12-17T14:13:49.204Z,99114.75
2022-12-17T14:14:55.887Z,99121.56
2022-12-17T14:16:08.570Z,99123.22
2022-12-17T14:17:18.916Z,99126.84
2022-12-17T14:18:22.807Z,99131.16
2022-12-17T14:19:25.468Z,99134.84
2022-12-17T14:20:30.688Z,99147.09
2022-12-17T14:21:32.629Z,99148.81
2022-12-17T14:22:37.379Z,99147.94
2022-12-17T14:23:44.007Z,99139.25
2022-12-17T14:24:46.423Z,99145.03
2022-12-17T14:25:49.607Z,99146.38
2022-12-17T14:26:53.606Z,99146.88
2022-12-17T14:27:59.193Z,99153.34
2022-12-17T14:29:02.585Z,99152.19
2022-12-17T14:30:23.434Z,99157.03
2022-12-17T14:31:29.450Z,99152.38
2022-12-17T14:32:33.599Z,99162.97
2022-12-17T14:33:37.958Z,99162.56
2022-12-17T14:34:43.018Z,99166.47
2022-12-17T14:35:53.049Z,99167.69
2022-12-17T14:36:58.365Z,99168.81
2022-12-17T14:38:00.343Z,99170.75
2022-12-17T14:39:10.924Z,99179.50
2022-12-17T14:40:15.926Z,99175.47
2022-12-17T14:41:36.267Z,99175.69
2022-12-17T14:42:40.126Z,99181.06
2022-12-17T14:43:42.105Z,99180.34
2022-12-17T14:44:53.364Z,99189.00
2022-12-17T14:46:17.346Z,99183.16
2022-12-17T14:47:23.875Z,99185.09
2022-12-17T14:48:47.807Z,99186.88
2022-12-17T14:50:02.940Z,99189.69
2022-12-17T14:51:05.205Z,99189.81
2022-12-17T14:52:14.071Z,99193.31
2022-12-17T14:53:26.701Z,99199.38
2022-12-17T14:54:29.947Z,99202.88
2022-12-17T14:55:38.386Z,99202.03
2022-12-17T14:56:41.423Z,99199.63
2022-12-17T14:57:44.681Z,99205.63
2022-12-17T14:58:47.538Z,99211.59
2022-12-17T14:59:50.364Z,99214.22
2022-12-17T15:00:55.824Z,99215.94
2022-12-17T15:02:00.641Z,99213.44
2022-12-17T15:03:05.111Z,99226.25
2022-12-17T15:04:09.961Z,99229.63
2022-12-17T15:05:14.297Z,99224.50
2022-12-17T15:06:19.464Z,99225.38
2022-12-17T15:07:25.600Z,99224.56
2022-12-17T15:08:31.661Z,99224.59
2022-12-17T15:09:35.744Z,99227.22
2022-12-17T15:10:38.684Z,99221.25
2022-12-17T15:11:40.676Z,99228.09
2022-12-17T15:12:44.396Z,99226.38
2022-12-17T15:13:49.197Z,99228.09
2022-12-17T15:14:55.949Z,99231.50
2022-12-17T15:15:57.820Z,99236.63
2022-12-17T15:17:19.942Z,99236.72
2022-12-17T15:18:23.241Z,99235.88
2022-12-17T15:19:26.401Z,99238.44
2022-12-17T15:20:28.380Z,99235.09
2022-12-17T15:21:31.441Z,99243.59
2022-12-17T15:22:33.305Z,99245.38
2022-12-17T15:23:40.443Z,99259.00
2022-12-17T15:24:43.703Z,99252.22
2022-12-17T15:25:47.452Z,99254.88
2022-12-17T15:26:49.700Z,99246.38
2022-12-17T15:28:11.063Z,99258.41
2022-12-17T15:29:13.260Z,99256.69
2022-12-17T15:30:17.993Z,99254.16
2022-12-17T15:31:24.672Z,99256.78
2022-12-17T15:32:29.003Z,99258.53
2022-12-17T15:33:33.259Z,99261.13
2022-12-17T15:34:35.199Z,99259.50
2022-12-17T15:35:38.778Z,99254.38
2022-12-17T15:36:41.723Z,99263.75
2022-12-17T15:37:43.598Z,99270.56
2022-12-17T15:38:46.758Z,99262.03
2022-12-17T15:39:51.143Z,99265.44
2022-12-17T15:40:54.415Z,99273.13
2022-12-17T15:42:14.940Z,99265.44
2022-12-17T15:43:16.797Z,99267.25
2022-12-17T15:44:18.697Z,99264.72
2022-12-17T15:45:24.279Z,99267.28
2022-12-17T15:46:27.391Z,99269.81
2022-12-17T15:47:29.679Z,99276.66
2022-12-17T15:48:52.858Z,99269.91
2022-12-17T15:49:54.798Z,99278.47
2022-12-17T15:50:57.718Z,99282.75
2022-12-17T15:51:59.758Z,99280.19
2022-12-17T15:53:02.778Z,99277.69
2022-12-17T15:54:04.817Z,99276.00
2022-12-17T15:55:08.316Z,99280.28
2022-12-17T15:56:20.943Z,99281.22
2022-12-17T15:57:23.835Z,99286.38
2022-12-17T15:58:25.815Z,99283.81
2022-12-17T15:59:28.916Z,99282.97
2022-12-17T16:00:31.889Z,99288.09
2022-12-17T16:01:35.380Z,99286.41
2022-12-17T16:02:37.597Z,99294.13
2022-12-17T16:03:40.736Z,99294.16
2022-12-17T16:04:44.135Z,99292.50
2022-12-17T16:05:47.050Z,99301.84
2022-12-17T16:06:48.925Z,99299.28
2022-12-17T16:07:52.655Z,99299.28
2022-12-17T16:08:54.554Z,99308.63
2022-12-17T16:10:03.152Z,99307.78
2022-12-17T16:11:08.217Z,99307.84
2022-12-17T16:12:12.529Z,99307.84
2022-12-17T16:13:15.674Z,99312.09
2022-12-17T16:14:18.715Z,99312.97
2022-12-17T16:15:20.714Z,99309.56
2022-12-17T16:16:23.831Z,99313.81
2022-12-17T16:17:26.040Z,99318.09
2022-12-17T16:18:28.934Z,99313.00
2022-12-17T16:19:31.913Z,99313.88
2022-12-17T16:20:36.334Z,99320.75
2022-12-17T16:21:43.373Z,99319.06
2022-12-17T16:22:49.493Z,99322.50
2022-12-17T16:23:51.594Z,99320.81
2022-12-17T16:24:54.513Z,99321.69
2022-12-17T16:25:58.873Z,99322.56
2022-12-17T16:27:04.549Z,99331.94
2022-12-17T16:28:07.759Z,99327.66
2022-12-17T16:29:10.657Z,99327.69
2022-12-17T16:30:14.896Z,99330.25
2022-12-17T16:31:16.982Z,99326.06
2022-12-17T16:32:20.191Z,99320.13
2022-12-17T16:33:22.573Z,99325.22
2022-12-17T16:34:25.431Z,99323.50
2022-12-17T16:35:28.490Z,99323.50
2022-12-17T16:36:32.853Z,99317.56
2022-12-17T16:37:34.771Z,99327.75
2022-12-17T16:38:44.328Z,99329.47
2022-12-17T16:39:47.736Z,99333.72
2022-12-17T16:40:49.842Z,99337.13
2022-12-17T16:41:52.831Z,99339.72
2022-12-17T16:42:57.010Z,99342.28
2022-12-17T16:43:58.991Z,99338.03
2022-12-17T16:45:01.870Z,99349.06
2022-12-17T16:46:09.086Z,99351.63
2022-12-17T16:47:15.010Z,99349.06
2022-12-17T16:48:17.471Z,99358.41
2022-12-17T16:49:21.808Z,99349.00
2022-12-17T16:50:24.890Z,99355.81
2022-12-17T16:51:29.226Z,99349.84
2022-12-17T16:52:35.009Z,99353.25
2022-12-17T16:53:36.889Z,99354.94
2022-12-17T16:54:39.791Z,99356.66
2022-12-17T16:55:42.704Z,99357.47
2022-12-17T16:56:49.128Z,99359.16
2022-12-17T16:57:52.009Z,99355.72
2022-12-17T16:58:54.048Z,99360.78
2022-12-17T16:59:56.978Z,99353.13
2022-12-17T17:00:59.228Z,99359.94
2022-12-17T17:02:03.053Z,99360.78
2022-12-17T17:03:05.695Z,99362.41
2022-12-17T17:04:09.926Z,99359.03
2022-12-17T17:05:13.012Z,99364.97
2022-12-17T17:06:15.588Z,99371.81
2022-12-17T17:07:18.667Z,99375.19
2022-12-17T17:08:22.227Z,99379.47
2022-12-17T17:09:26.587Z,99382.03
2022-12-17T17:10:30.047Z,99387.13
2022-12-17T17:11:32.487Z,99388.88
2022-12-17T17:12:35.371Z,99388.09
2022-12-17T17:13:37.929Z,99383.88
2022-12-17T17:14:43.806Z,99386.47
2022-12-17T17:15:45.807Z,99382.28
2022-12-17T17:16:49.266Z,99383.13
2022-12-17T17:17:55.473Z,99388.25
2022-12-17T17:18:59.385Z,99388.25
2022-12-17T17:20:01.347Z,99389.19
2022-12-17T17:21:15.168Z,99387.53
2022-12-17T17:22:17.403Z,99394.38
2022-12-17T17:23:20.365Z,99392.72
2022-12-17T17:24:25.469Z,99397.03
2022-12-17T17:25:50.195Z,99403.94
2022-12-17T17:26:52.782Z,99404.00
2022-12-17T17:27:55.003Z,99416.00
2022-12-17T17:28:57.924Z,99411.78
2022-12-17T17:30:03.693Z,99418.69
2022-12-17T17:31:08.316Z,99427.22
2022-12-17T17:32:12.989Z,99428.97
2022-12-17T17:33:15.604Z,99431.50